Terminal Aerodrome Forecast
Issued by NWS Upton, NY

Home | Current Version | Previous Version | Text Only | Print | Product List | Glossary On
Versions: 1 2 3 4 5 6 7 8 9 10 11 12 13 14 15 16 17 18 19 20 21 22 23 24 25 26 27 28 29 30 31 32 33 34 35 36 37 38
643
FTUS41 KOKX 252226 AAC
TAFISP
TAF AMD
KISP 252226Z 2522/2618 16008KT 1/2SM -DZ FG OVC002
      TEMPO 2522/2602 1/4SM FG
     FM260200 VRB04KT 1/4SM FG VCSH OVC002
     FM261000 30007KT 3SM BR SCT005 OVC015
     FM261200 29010KT P6SM FEW010 BKN025
     FM261400 28012KT P6SM SCT035 SCT100
     FM261600 27012G20KT P6SM SCT250=

USA.gov is the U.S. government's official web portal to all federal, state and local government web resources and services.